createdAt,value
2019-02-26T00:03:49.934Z,51.22
2019-02-26T00:09:01.212Z,52.81
2019-02-26T00:14:07.668Z,131.51
2019-02-26T00:19:16.766Z,69.15
2019-02-26T00:24:25.913Z,51.65
2019-02-26T00:29:34.964Z,47.00
2019-02-26T00:34:44.044Z,42.24
2019-02-26T00:39:54.146Z,43.62
2019-02-26T00:45:03.349Z,44.47
2019-02-26T00:50:11.946Z,44.67
2019-02-26T00:55:23.139Z,44.98
2019-02-26T01:00:28.507Z,42.45
2019-02-26T01:05:38.205Z,129.19
2019-02-26T01:10:45.845Z,77.59
2019-02-26T01:15:53.799Z,54.45
2019-02-26T01:21:04.322Z,52.20
2019-02-26T01:26:12.227Z,46.82
2019-02-26T01:31:22.248Z,46.49
2019-02-26T01:36:28.895Z,44.27
2019-02-26T01:41:41.339Z,44.56
2019-02-26T01:46:46.802Z,41.51
2019-02-26T01:51:55.902Z,127.55
2019-02-26T01:57:08.635Z,79.27
2019-02-26T02:02:17.340Z,55.76
2019-02-26T02:07:24.255Z,48.23
2019-02-26T02:12:32.433Z,44.67
2019-02-26T02:17:40.141Z,43.59
2019-02-26T02:22:48.381Z,47.10
2019-02-26T02:27:59.343Z,45.31
2019-02-26T02:33:06.099Z,125.42
2019-02-26T02:38:19.554Z,129.83
2019-02-26T02:43:23.875Z,133.85
2019-02-26T02:48:33.052Z,79.10
2019-02-26T02:53:45.008Z,77.69
2019-02-26T02:58:51.596Z,138.96
2019-02-26T03:04:01.127Z,71.92
2019-02-26T03:09:09.225Z,139.51
2019-02-26T03:14:18.599Z,144.16
2019-02-26T03:19:25.457Z,65.89
2019-02-26T03:24:35.941Z,46.55
2019-02-26T03:29:45.036Z,43.33
2019-02-26T03:34:51.906Z,41.36
2019-02-26T03:40:03.704Z,44.22
2019-02-26T03:45:09.673Z,134.44
2019-02-26T03:50:18.999Z,141.69
2019-02-26T03:55:30.769Z,149.12
2019-02-26T04:00:38.639Z,61.45
2019-02-26T04:05:45.313Z,43.96
2019-02-26T04:10:55.933Z,42.26
2019-02-26T04:16:04.611Z,46.09
2019-02-26T04:21:14.797Z,43.85
2019-02-26T04:26:21.090Z,45.11
2019-02-26T04:31:29.327Z,45.43
2019-02-26T04:36:41.613Z,129.39
2019-02-26T04:41:47.115Z,70.11
2019-02-26T04:46:57.168Z,135.91
2019-02-26T04:52:05.618Z,62.23
2019-02-26T04:57:13.453Z,48.29
2019-02-26T05:02:22.711Z,43.39
2019-02-26T05:07:32.885Z,49.42
2019-02-26T05:12:40.439Z,42.12
2019-02-26T05:17:49.536Z,45.33
2019-02-26T05:23:00.995Z,44.20
2019-02-26T05:28:09.506Z,43.93
2019-02-26T05:33:15.951Z,129.57
2019-02-26T05:38:26.568Z,132.44
2019-02-26T05:43:34.077Z,78.87
2019-02-26T05:48:43.867Z,137.81
2019-02-26T05:53:51.586Z,142.60
2019-02-26T05:59:04.282Z,61.37
2019-02-26T06:04:10.113Z,46.86
2019-02-26T06:09:20.115Z,43.89
2019-02-26T06:14:27.566Z,41.54
2019-02-26T06:19:37.201Z,43.94
2019-02-26T06:24:44.058Z,44.61
2019-02-26T06:29:55.423Z,44.14
2019-02-26T06:35:01.768Z,126.30
2019-02-26T06:40:10.953Z,73.35
2019-02-26T06:45:20.105Z,128.90
2019-02-26T06:50:29.223Z,86.03
2019-02-26T06:55:38.381Z,53.04
2019-02-26T07:00:48.193Z,49.83
2019-02-26T07:05:56.136Z,49.41
2019-02-26T07:11:07.182Z,48.65
2019-02-26T07:16:14.009Z,44.09
2019-02-26T07:21:23.075Z,46.45
2019-02-26T07:26:32.231Z,47.64
2019-02-26T07:31:41.323Z,44.45
2019-02-26T07:36:52.438Z,49.14
2019-02-26T07:41:59.197Z,48.95
2019-02-26T07:47:08.871Z,41.38
2019-02-26T07:52:17.390Z,47.36
2019-02-26T07:57:27.659Z,126.92
2019-02-26T08:02:36.806Z,84.69
2019-02-26T08:07:45.877Z,62.61
2019-02-26T08:12:52.868Z,56.91
2019-02-26T08:18:03.479Z,130.83
2019-02-26T08:23:10.704Z,137.04
2019-02-26T08:28:20.872Z,75.01
2019-02-26T08:33:28.862Z,54.88
2019-02-26T08:38:38.041Z,137.22
2019-02-26T08:43:49.205Z,73.53
2019-02-26T08:48:55.878Z,54.58
2019-02-26T08:54:04.936Z,142.89
2019-02-26T08:59:16.048Z,65.29
2019-02-26T09:04:23.887Z,59.06
2019-02-26T09:09:32.816Z,58.03
2019-02-26T09:14:42.387Z,52.92
2019-02-26T09:19:50.860Z,144.17
2019-02-26T09:25:01.463Z,55.03
2019-02-26T09:30:08.465Z,47.46
2019-02-26T09:35:30.476Z,46.32
2019-02-26T09:40:17.131Z,49.13
2019-02-26T09:45:26.891Z,86.13
2019-02-26T09:50:33.288Z,59.10
2019-02-26T09:55:42.454Z,54.21
2019-02-26T10:00:53.857Z,297.94
2019-02-26T10:06:00.367Z,79.93
2019-02-26T10:11:09.496Z,208.67
2019-02-26T10:16:21.067Z,254.70
2019-02-26T10:21:27.529Z,266.49
2019-02-26T10:26:38.598Z,51.62
2019-02-26T10:31:45.268Z,300.83
2019-02-26T10:36:54.495Z,286.71
2019-02-26T10:42:03.805Z,310.31
2019-02-26T10:47:12.927Z,47.37
2019-02-26T10:52:23.889Z,50.42
2019-02-26T10:57:31.064Z,366.70
2019-02-26T11:02:40.689Z,354.16
2019-02-26T11:07:48.190Z,371.89
2019-02-26T11:12:59.432Z,391.30
2019-02-26T11:18:11.516Z,396.81
2019-02-26T11:23:08.972Z,394.68
2019-02-26T11:28:16.315Z,406.67
2019-02-26T11:33:25.646Z,407.99
2019-02-26T11:38:39.065Z,430.02
2019-02-26T11:43:44.506Z,407.40
2019-02-26T11:48:55.451Z,414.57
2019-02-26T11:54:04.791Z,409.45
2019-02-26T11:59:12.615Z,402.79
2019-02-26T12:04:19.873Z,264.04
2019-02-26T12:09:32.230Z,370.78
2019-02-26T12:14:40.201Z,416.52
2019-02-26T12:19:48.470Z,420.05
2019-02-26T12:24:55.971Z,435.17
2019-02-26T12:30:03.634Z,447.07
2019-02-26T12:35:14.915Z,447.81
2019-02-26T12:40:23.356Z,450.69
2019-02-26T12:45:31.789Z,447.99
2019-02-26T12:50:40.443Z,489.69
2019-02-26T12:55:46.212Z,446.61
2019-02-26T13:00:55.676Z,411.18
2019-02-26T13:06:05.959Z,412.36
2019-02-26T13:11:14.153Z,399.22
2019-02-26T13:16:22.113Z,392.78
2019-02-26T13:21:31.217Z,394.86
2019-02-26T13:26:43.466Z,580.12
2019-02-26T13:31:56.231Z,283.10
2019-02-26T13:36:57.733Z,363.18
2019-02-26T13:42:13.105Z,382.86
2019-02-26T13:47:15.510Z,287.29
2019-02-26T13:52:24.605Z,295.14
2019-02-26T13:57:33.906Z,320.19
2019-02-26T14:02:43.057Z,395.56
2019-02-26T14:07:52.513Z,442.56
2019-02-26T14:13:01.604Z,420.21
2019-02-26T14:18:10.934Z,289.11
2019-02-26T14:23:20.145Z,455.16
2019-02-26T14:28:32.274Z,956.60
2019-02-26T14:33:31.307Z,876.26
2019-02-26T14:38:40.469Z,872.40
2019-02-26T14:43:49.666Z,846.41
2019-02-26T14:48:58.793Z,864.05
2019-02-26T14:54:07.900Z,861.34
2019-02-26T14:59:17.064Z,840.21
2019-02-26T15:04:26.175Z,837.81
2019-02-26T15:09:35.332Z,820.08
2019-02-26T15:14:44.569Z,839.54
2019-02-26T15:19:53.700Z,858.80
2019-02-26T15:25:02.801Z,859.07
2019-02-26T15:30:11.962Z,856.98
2019-02-26T15:35:21.106Z,470.91
2019-02-26T15:40:30.270Z,680.03
2019-02-26T15:45:39.363Z,751.61
2019-02-26T15:50:48.578Z,716.15
2019-02-26T15:55:59.444Z,655.72
2019-02-26T16:01:06.350Z,601.54
2019-02-26T16:06:15.476Z,433.41
2019-02-26T16:11:24.651Z,497.93
2019-02-26T16:16:33.788Z,588.10
2019-02-26T16:21:42.990Z,426.74
2019-02-26T16:26:52.094Z,509.20
2019-02-26T16:32:02.689Z,516.67
2019-02-26T16:37:10.003Z,411.79
2019-02-26T16:42:17.700Z,428.29
2019-02-26T16:47:26.779Z,411.20
2019-02-26T16:52:36.025Z,479.11
2019-02-26T16:57:45.139Z,498.03
2019-02-26T17:02:54.344Z,505.53
2019-02-26T17:08:03.481Z,559.98
2019-02-26T17:13:12.632Z,509.79
2019-02-26T17:18:21.726Z,504.51
2019-02-26T17:23:30.866Z,499.58
2019-02-26T17:28:43.557Z,501.46
2019-02-26T17:33:48.744Z,500.53
2019-02-26T17:38:57.804Z,504.93
2019-02-26T17:44:07.131Z,498.58
2019-02-26T17:49:17.972Z,500.01
2019-02-26T17:54:25.069Z,489.34
2019-02-26T17:59:34.124Z,494.66
2019-02-26T18:04:43.313Z,488.85
2019-02-26T18:09:52.360Z,496.11
2019-02-26T18:15:01.688Z,387.88
2019-02-26T18:20:10.767Z,459.63
2019-02-26T18:25:19.886Z,385.68
2019-02-26T18:30:28.975Z,440.86
2019-02-26T18:35:38.141Z,463.12
2019-02-26T18:40:47.201Z,490.12
2019-02-26T18:46:00.625Z,365.52
2019-02-26T18:51:05.144Z,453.34
2019-02-26T18:56:14.313Z,472.28
2019-02-26T19:01:23.440Z,465.47
2019-02-26T19:06:32.544Z,286.10
2019-02-26T19:11:41.632Z,397.67
2019-02-26T19:16:54.043Z,411.22
2019-02-26T19:21:59.403Z,233.57
2019-02-26T19:27:08.546Z,375.54
2019-02-26T19:32:17.655Z,402.62
2019-02-26T19:37:27.019Z,403.01
2019-02-26T19:42:36.110Z,425.31
2019-02-26T19:47:45.323Z,422.00
2019-02-26T19:52:57.192Z,429.21
2019-02-26T19:58:06.384Z,399.71
2019-02-26T20:03:11.690Z,440.53
2019-02-26T20:08:20.791Z,264.69
2019-02-26T20:13:31.677Z,376.85
2019-02-26T20:18:38.630Z,403.64
2019-02-26T20:23:47.716Z,410.22
2019-02-26T20:28:56.825Z,413.31
2019-02-26T20:34:06.656Z,418.43
2019-02-26T20:39:14.575Z,280.26
2019-02-26T20:44:23.638Z,382.38
2019-02-26T20:49:32.937Z,244.89
2019-02-26T20:54:44.462Z,378.57
2019-02-26T20:59:51.974Z,400.60
2019-02-26T21:04:59.498Z,411.28
2019-02-26T21:10:09.031Z,404.01
2019-02-26T21:15:18.077Z,403.47
2019-02-26T21:20:27.261Z,408.82
2019-02-26T21:25:36.345Z,399.76
2019-02-26T21:30:45.809Z,403.53
2019-02-26T21:35:54.356Z,396.80
2019-02-26T21:41:02.754Z,92.59
2019-02-26T21:46:11.835Z,88.98
2019-02-26T21:51:21.002Z,321.16
2019-02-26T21:56:30.045Z,363.43
2019-02-26T22:01:41.193Z,373.11
2019-02-26T22:06:47.891Z,90.01
2019-02-26T22:11:56.994Z,332.80
2019-02-26T22:17:06.168Z,361.36
2019-02-26T22:22:15.436Z,375.41
2019-02-26T22:27:24.502Z,378.72
2019-02-26T22:32:34.964Z,391.84
2019-02-26T22:37:42.205Z,375.64
2019-02-26T22:42:51.429Z,366.63
2019-02-26T22:48:00.473Z,354.86
2019-02-26T22:53:09.701Z,363.72
2019-02-26T22:58:18.755Z,362.78
2019-02-26T23:03:27.904Z,356.44
2019-02-26T23:08:36.967Z,84.93
2019-02-26T23:13:46.202Z,296.68
2019-02-26T23:18:55.262Z,332.71
2019-02-26T23:24:04.414Z,45.83
2019-02-26T23:29:13.489Z,366.51
2019-02-26T23:34:22.731Z,84.70
2019-02-26T23:39:31.798Z,241.49
2019-02-26T23:44:42.768Z,298.98
2019-02-26T23:49:41.872Z,77.79
2019-02-26T23:54:51.257Z,81.76
